Michigan — WDF5344 — position and weather

sailwx.info

Track history (hours):
 
Tides and Currents Weather Stations Pressure Air Temp Water Temp Dewpoint Dewpoint Depression Visibility Wind Speed Wind Dir Waves Ship Positions

Michigan

Owner: GATX Third Aircraft Corporation, San Francisco, CA. More information available from US FCC via Universal Licensing System and Coast Guard Vessel Documentation Center.

Last reported at 2015-May-23 07:29 UTC. Time now 2015-May-27 11:53 UTC.
Position N 45°37' W 086°17'.

Length 144 m.

Type: Ship (hazmat cat D). MMSI: 303583000.

Date/timePositionNaut miles runAvg speedWind from/ knotsBaromVisibWave heightAir tempDewpointWater temp
2015-May-23 07:29N 45°37' W 086°17'1011.0
2015-May-23 06:33N 45°42' W 086°04'1111.0
2015-May-23 05:33N 45°47' W 085°50'1111.1
2015-May-23 04:33N 45°53' W 085°37'1110.7
2015-May-23 03:33N 45°53' W 085°21'1111.1
2015-May-23 02:33N 45°51' W 085°06'1111.0
2015-May-23 01:33N 45°49' W 084°50'1110.7
2015-May-23 00:33N 45°46' W 084°36'1110.7
2015-May-22 23:33N 45°41' W 084°22'915.2
2015-May-22 23:00N 45°36' W 084°12'3 6.4 290 / 81024.0 0.5 9.4
2015-May-22 22:28N 45°36' W 084°07'5 0.5
2015-May-22 12:18N 45°39' W 084°14'810.5
2015-May-22 11:33N 45°41' W 084°24'4 3.6
2015-May-22 10:33N 45°39' W 084°28'0 0.0
2015-May-22 09:33N 45°39' W 084°28'0 0.0
2015-May-22 08:33N 45°39' W 084°28'0 0.0
2015-May-22 07:33N 45°39' W 084°28'0 0.0
2015-May-22 06:33N 45°39' W 084°28'0 0.0
2015-May-22 05:33N 45°39' W 084°28'0 0.0
2015-May-22 04:33N 45°39' W 084°28'0 0.0
2015-May-22 03:33N 45°39' W 084°28'0 0.0
2015-May-22 02:33N 45°39' W 084°28'0 0.0
2015-May-22 01:33N 45°39' W 084°28'0 0.0
2015-May-22 00:33N 45°39' W 084°28'0 0.3
2015-May-21 23:33N 45°39' W 084°28'7 7.4
2015-May-21 22:33N 45°45' W 084°35'1110.7
2015-May-21 21:33N 45°49' W 084°49'1110.8
2015-May-21 20:33N 45°51' W 085°04'1110.9
2015-May-21 19:33N 45°52' W 085°20'1110.5
2015-May-21 18:33N 45°53' W 085°35'1110.9
2015-May-21 17:33N 45°48' W 085°48'1110.8
2015-May-21 16:33N 45°43' W 086°02'1110.8
2015-May-21 15:33N 45°37' W 086°15'1110.8
2015-May-21 14:33N 45°32' W 086°29'1110.9
2015-May-21 13:32N 45°27' W 086°43'3610.1
2015-May-21 10:00N 45°06' W 087°24'3618.0 280 / 71015.9 0.5 7.7
2015-May-21 08:00N 44°30' W 087°24'   270 / 111016.510.8 0.5 8.3
2015-May-17 01:20N 45°29' W 086°37'911.1
2015-May-17 00:32N 45°33' W 086°26'1111.0
2015-May-16 23:33N 45°39' W 086°12'1111.1
2015-May-16 22:33N 45°44' W 085°58'1111.0
2015-May-16 21:33N 45°49' W 085°45'1110.7
2015-May-16 20:33N 45°54' W 085°31'1110.8
2015-May-16 19:33N 45°52' W 085°15'1110.9
2015-May-16 18:33N 45°51' W 084°60'1110.8
2015-May-16 17:33N 45°49' W 084°44'1110.7
2015-May-16 16:33N 45°44' W 084°31'5 5.2
2015-May-16 15:33N 45°39' W 084°28'0 0.0
2015-May-16 14:33N 45°39' W 084°28'0 0.0
2015-May-16 13:33N 45°39' W 084°28'0 0.0
2015-May-16 12:33N 45°39' W 084°28'0 0.0
2015-May-16 11:33N 45°39' W 084°28'0 0.0
2015-May-16 10:33N 45°39' W 084°28'0 0.0
2015-May-16 09:33N 45°39' W 084°28'0 0.0
2015-May-16 08:33N 45°39' W 084°28'0 0.0
2015-May-16 07:33N 45°39' W 084°28'0 0.0
2015-May-16 06:33N 45°39' W 084°28'0 0.0
2015-May-16 05:33N 45°39' W 084°28'0 0.0
2015-May-16 04:33N 45°39' W 084°28'0 0.0
2015-May-16 03:33N 45°39' W 084°28'0 0.0
2015-May-16 02:33N 45°39' W 084°28'0 0.0
2015-May-16 01:33N 45°39' W 084°28'0 0.0
2015-May-16 00:33N 45°39' W 084°28'0 0.0
2015-May-15 23:33N 45°39' W 084°28'0 0.0
2015-May-15 22:33N 45°39' W 084°28'0 0.0
2015-May-15 21:33N 45°39' W 084°28'0 0.0
2015-May-15 20:33N 45°39' W 084°28'0 0.0
2015-May-15 19:33N 45°39' W 084°28'1729.5
2015-May-15 19:00N 45°24' W 084°18'1738.0 050 / 61016.5 2.2 0.5 7.7
2015-May-15 18:33N 45°39' W 084°28'0 0.0
2015-May-15 17:33N 45°39' W 084°28'0 0.0
2015-May-15 16:33N 45°39' W 084°28'0 0.0
2015-May-15 15:33N 45°39' W 084°28'0 0.0
2015-May-15 14:33N 45°39' W 084°28'0 0.0
2015-May-15 13:33N 45°39' W 084°28'0 0.0
2015-May-15 12:33N 45°39' W 084°28'0 0.0
2015-May-15 11:33N 45°39' W 084°28'0 0.0
2015-May-15 10:33N 45°39' W 084°28'0 0.0
2015-May-15 09:33N 45°39' W 084°28'0 0.0
2015-May-15 08:33N 45°39' W 084°28'0 0.0
2015-May-15 07:33N 45°39' W 084°28'0 0.0
2015-May-15 06:33N 45°39' W 084°28'0 0.0
2015-May-15 05:33N 45°39' W 084°28'0 0.0
2015-May-15 04:33N 45°39' W 084°28'0 0.0
2015-May-15 03:33N 45°39' W 084°28'0 0.0
2015-May-15 02:33N 45°39' W 084°28'0 0.0
2015-May-15 01:33N 45°39' W 084°28'0 0.0
2015-May-15 00:33N 45°39' W 084°28'0 0.0
2015-May-14 23:33N 45°39' W 084°28'0 0.0
2015-May-14 22:33N 45°39' W 084°28'0 0.0
2015-May-14 21:33N 45°39' W 084°28'0 0.0
2015-May-14 20:33N 45°39' W 084°28'0 0.0
2015-May-14 19:33N 45°39' W 084°28'0 0.0
2015-May-14 18:33N 45°39' W 084°28'0 0.0
2015-May-14 17:33N 45°39' W 084°28'0 0.0
2015-May-14 16:33N 45°39' W 084°28'0 0.0
2015-May-14 15:33N 45°39' W 084°28'0 0.0
2015-May-14 14:33N 45°39' W 084°28'0 0.0
2015-May-14 13:33N 45°39' W 084°28'0 0.0
2015-May-14 12:33N 45°39' W 084°28'0 0.0
2015-May-14 11:33N 45°39' W 084°28'0 0.0
2015-May-14 10:33N 45°39' W 084°28'0 0.0
2015-May-14 09:33N 45°39' W 084°28'0 0.0
2015-May-14 08:33N 45°39' W 084°28'0 0.0
2015-May-14 07:33N 45°39' W 084°28'0 0.0
2015-May-14 06:33N 45°39' W 084°28'0 0.0
2015-May-14 05:33N 45°39' W 084°28'0 0.0
2015-May-14 04:33N 45°39' W 084°28'4 4.2
2015-May-14 03:33N 45°43' W 084°30'1110.7
2015-May-14 02:33N 45°49' W 084°43'1010.4
2015-May-14 01:33N 45°50' W 084°58'1110.8
2015-May-14 00:33N 45°52' W 085°13'1110.6
2015-May-13 23:33N 45°53' W 085°28'1010.1
2015-May-13 22:33N 45°50' W 085°42'1110.7
2015-May-13 21:33N 45°45' W 085°56'1110.8
2015-May-13 20:33N 45°40' W 086°09'1410.9
2015-May-13 19:15N 45°33' W 086°27'  
Track history (hours):
 
Tides and Currents Weather Stations Pressure Air Temp Water Temp Dewpoint Dewpoint Depression Visibility Wind Speed Wind Dir Waves Ship Positions

Michigan

Owner: GATX Third Aircraft Corporation, San Francisco, CA. More information available from US FCC via Universal Licensing System and Coast Guard Vessel Documentation Center.

Last reported at 2015-May-23 07:29 UTC. Time now 2015-May-27 11:53 UTC.
Position N 45°37' W 086°17'.

Length 144 m.

Type: Ship (hazmat cat D). MMSI: 303583000.

Date/timePositionNaut miles runAvg speedWind from/ knotsBaromVisibWave heightAir tempDewpointWater temp
2015-May-23 07:29N 45°37' W 086°17'1011.0
2015-May-23 06:33N 45°42' W 086°04'1111.0
2015-May-23 05:33N 45°47' W 085°50'1111.1
2015-May-23 04:33N 45°53' W 085°37'1110.7
2015-May-23 03:33N 45°53' W 085°21'1111.1
2015-May-23 02:33N 45°51' W 085°06'1111.0
2015-May-23 01:33N 45°49' W 084°50'1110.7
2015-May-23 00:33N 45°46' W 084°36'1110.7
2015-May-22 23:33N 45°41' W 084°22'915.2
2015-May-22 23:00N 45°36' W 084°12'3 6.4 290 / 81024.0 0.5 9.4
2015-May-22 22:28N 45°36' W 084°07'5 0.5
2015-May-22 12:18N 45°39' W 084°14'810.5
2015-May-22 11:33N 45°41' W 084°24'4 3.6
2015-May-22 10:33N 45°39' W 084°28'0 0.0
2015-May-22 09:33N 45°39' W 084°28'0 0.0
2015-May-22 08:33N 45°39' W 084°28'0 0.0
2015-May-22 07:33N 45°39' W 084°28'0 0.0
2015-May-22 06:33N 45°39' W 084°28'0 0.0
2015-May-22 05:33N 45°39' W 084°28'0 0.0
2015-May-22 04:33N 45°39' W 084°28'0 0.0
2015-May-22 03:33N 45°39' W 084°28'0 0.0
2015-May-22 02:33N 45°39' W 084°28'0 0.0
2015-May-22 01:33N 45°39' W 084°28'0 0.0
2015-May-22 00:33N 45°39' W 084°28'0 0.3
2015-May-21 23:33N 45°39' W 084°28'7 7.4
2015-May-21 22:33N 45°45' W 084°35'1110.7
2015-May-21 21:33N 45°49' W 084°49'1110.8
2015-May-21 20:33N 45°51' W 085°04'1110.9
2015-May-21 19:33N 45°52' W 085°20'1110.5
2015-May-21 18:33N 45°53' W 085°35'1110.9
2015-May-21 17:33N 45°48' W 085°48'1110.8
2015-May-21 16:33N 45°43' W 086°02'1110.8
2015-May-21 15:33N 45°37' W 086°15'1110.8
2015-May-21 14:33N 45°32' W 086°29'1110.9
2015-May-21 13:32N 45°27' W 086°43'3610.1
2015-May-21 10:00N 45°06' W 087°24'3618.0 280 / 71015.9 0.5 7.7
2015-May-21 08:00N 44°30' W 087°24'   270 / 111016.510.8 0.5 8.3
2015-May-17 01:20N 45°29' W 086°37'911.1
2015-May-17 00:32N 45°33' W 086°26'1111.0
2015-May-16 23:33N 45°39' W 086°12'1111.1
2015-May-16 22:33N 45°44' W 085°58'1111.0
2015-May-16 21:33N 45°49' W 085°45'1110.7
2015-May-16 20:33N 45°54' W 085°31'1110.8
2015-May-16 19:33N 45°52' W 085°15'1110.9
2015-May-16 18:33N 45°51' W 084°60'1110.8
2015-May-16 17:33N 45°49' W 084°44'1110.7
2015-May-16 16:33N 45°44' W 084°31'5 5.2
2015-May-16 15:33N 45°39' W 084°28'0 0.0
2015-May-16 14:33N 45°39' W 084°28'0 0.0
2015-May-16 13:33N 45°39' W 084°28'0 0.0
2015-May-16 12:33N 45°39' W 084°28'0 0.0
2015-May-16 11:33N 45°39' W 084°28'0 0.0
2015-May-16 10:33N 45°39' W 084°28'0 0.0
2015-May-16 09:33N 45°39' W 084°28'0 0.0
2015-May-16 08:33N 45°39' W 084°28'0 0.0
2015-May-16 07:33N 45°39' W 084°28'0 0.0
2015-May-16 06:33N 45°39' W 084°28'0 0.0
2015-May-16 05:33N 45°39' W 084°28'0 0.0
2015-May-16 04:33N 45°39' W 084°28'0 0.0
2015-May-16 03:33N 45°39' W 084°28'0 0.0
2015-May-16 02:33N 45°39' W 084°28'0 0.0
2015-May-16 01:33N 45°39' W 084°28'0 0.0
2015-May-16 00:33N 45°39' W 084°28'0 0.0
2015-May-15 23:33N 45°39' W 084°28'0 0.0
2015-May-15 22:33N 45°39' W 084°28'0 0.0
2015-May-15 21:33N 45°39' W 084°28'0 0.0
2015-May-15 20:33N 45°39' W 084°28'0 0.0
2015-May-15 19:33N 45°39' W 084°28'1729.5
2015-May-15 19:00N 45°24' W 084°18'1738.0 050 / 61016.5 2.2 0.5 7.7
2015-May-15 18:33N 45°39' W 084°28'0 0.0
2015-May-15 17:33N 45°39' W 084°28'0 0.0
2015-May-15 16:33N 45°39' W 084°28'0 0.0
2015-May-15 15:33N 45°39' W 084°28'0 0.0
2015-May-15 14:33N 45°39' W 084°28'0 0.0
2015-May-15 13:33N 45°39' W 084°28'0 0.0
2015-May-15 12:33N 45°39' W 084°28'0 0.0
2015-May-15 11:33N 45°39' W 084°28'0 0.0
2015-May-15 10:33N 45°39' W 084°28'0 0.0
2015-May-15 09:33N 45°39' W 084°28'0 0.0
2015-May-15 08:33N 45°39' W 084°28'0 0.0
2015-May-15 07:33N 45°39' W 084°28'0 0.0
2015-May-15 06:33N 45°39' W 084°28'0 0.0
2015-May-15 05:33N 45°39' W 084°28'0 0.0
2015-May-15 04:33N 45°39' W 084°28'0 0.0
2015-May-15 03:33N 45°39' W 084°28'0 0.0
2015-May-15 02:33N 45°39' W 084°28'0 0.0
2015-May-15 01:33N 45°39' W 084°28'0 0.0
2015-May-15 00:33N 45°39' W 084°28'0 0.0
2015-May-14 23:33N 45°39' W 084°28'0 0.0
2015-May-14 22:33N 45°39' W 084°28'0 0.0
2015-May-14 21:33N 45°39' W 084°28'0 0.0
2015-May-14 20:33N 45°39' W 084°28'0 0.0
2015-May-14 19:33N 45°39' W 084°28'0 0.0
2015-May-14 18:33N 45°39' W 084°28'0 0.0
2015-May-14 17:33N 45°39' W 084°28'0 0.0
2015-May-14 16:33N 45°39' W 084°28'0 0.0
2015-May-14 15:33N 45°39' W 084°28'0 0.0
2015-May-14 14:33N 45°39' W 084°28'0 0.0
2015-May-14 13:33N 45°39' W 084°28'0 0.0
2015-May-14 12:33N 45°39' W 084°28'0 0.0
2015-May-14 11:33N 45°39' W 084°28'0 0.0
2015-May-14 10:33N 45°39' W 084°28'0 0.0
2015-May-14 09:33N 45°39' W 084°28'0 0.0
2015-May-14 08:33N 45°39' W 084°28'0 0.0
2015-May-14 07:33N 45°39' W 084°28'0 0.0
2015-May-14 06:33N 45°39' W 084°28'0 0.0
2015-May-14 05:33N 45°39' W 084°28'0 0.0
2015-May-14 04:33N 45°39' W 084°28'4 4.2
2015-May-14 03:33N 45°43' W 084°30'1110.7
2015-May-14 02:33N 45°49' W 084°43'1010.4
2015-May-14 01:33N 45°50' W 084°58'1110.8
2015-May-14 00:33N 45°52' W 085°13'1110.6
2015-May-13 23:33N 45°53' W 085°28'1010.1
2015-May-13 22:33N 45°50' W 085°42'1110.7
2015-May-13 21:33N 45°45' W 085°56'1110.8
2015-May-13 20:33N 45°40' W 086°09'1410.9
2015-May-13 19:15N 45°33' W 086°27'  

Dump ship's entire track history